Time;durP1;ratioP1;P1;durP2;ratioP2;P2;SDS_P1;SDS_P2;PMS_P1;PMS_P2;Temp;Humidity;BMP_temperature;BMP_pressure;BME280_temperature;BME280_humidity;BME280_pressure;Samples;Min_cycle;Max_cycle;Signal;HPM_P1;HPM_P2
2023/04/02 00:00:18;;;;;;;162.48;11.07;;;;;;;7.78;100.00;97985.06;5139555;28;20074;-65
2023/04/02 00:02:46;;;;;;;113.22;9.23;;;;;;;7.64;100.00;97996.59;5139056;28;20043;-61
2023/04/02 00:05:49;;;;;;;122.30;10.27;;;;;;;7.77;100.00;97980.75;5139481;27;20218;-62
2023/04/02 00:08:22;;;;;;;127.97;10.10;;;;;;;7.55;100.00;97975.06;5139323;28;20047;-66
2023/04/02 00:10:50;;;;;;;81.45;9.15;;;;;;;7.79;100.00;97962.84;5139081;28;20047;-64
2023/04/02 00:13:24;;;;;;;23.98;7.45;;;;;;;7.77;100.00;97967.91;5139011;28;20104;-64
2023/04/02 00:15:56;;;;;;;93.25;10.13;;;;;;;7.76;100.00;97965.53;5138440;27;20133;-66
2023/04/02 00:18:23;;;;;;;77.32;9.48;;;;;;;7.86;100.00;97958.59;5138677;28;20403;-64
2023/04/02 00:20:53;;;;;;;36.53;7.82;;;;;;;7.69;100.00;97960.00;5138814;28;20047;-61
2023/04/02 00:23:19;;;;;;;87.40;9.60;;;;;;;7.69;100.00;97946.38;5139072;28;20051;-63
2023/04/02 00:25:46;;;;;;;65.53;7.72;;;;;;;7.84;100.00;97947.31;5138744;28;20397;-64
2023/04/02 00:28:14;;;;;;;127.55;9.48;;;;;;;7.78;100.00;97950.38;5138937;28;20059;-67
2023/04/02 00:30:47;;;;;;;74.53;7.85;;;;;;;7.84;100.00;97947.31;5138773;28;20139;-64
2023/04/02 00:33:16;;;;;;;127.15;7.88;;;;;;;7.83;100.00;97946.53;5138890;28;20043;-62
2023/04/02 00:35:42;;;;;;;94.90;8.77;;;;;;;7.81;100.00;97967.94;5141072;27;20043;-60
2023/04/02 00:38:18;;;;;;;23.23;7.20;;;;;;;7.88;100.00;97973.44;5139395;28;20130;-65
2023/04/02 00:40:45;;;;;;;67.53;7.75;;;;;;;7.87;100.00;97991.00;5139058;28;20137;-66
2023/04/02 00:43:15;;;;;;;99.00;10.13;;;;;;;7.41;100.00;97996.75;5138464;28;20087;-66
2023/04/02 00:45:49;;;;;;;54.22;7.43;;;;;;;7.82;100.00;97979.63;5138835;28;20051;-65
2023/04/02 00:48:27;;;;;;;50.58;8.10;;;;;;;7.77;100.00;97980.75;5138634;28;20100;-63
2023/04/02 00:50:54;;;;;;;59.03;6.78;;;;;;;7.44;100.00;97971.47;5138498;28;20047;-62
2023/04/02 00:53:24;;;;;;;108.43;8.20;;;;;;;7.77;100.00;97956.22;5138580;28;20107;-67
2023/04/02 00:55:51;;;;;;;84.07;8.65;;;;;;;7.85;100.00;97957.84;5138381;28;20149;-62
2023/04/02 00:58:25;;;;;;;44.25;7.47;;;;;;;7.79;100.00;97970.25;5138591;28;20103;-64
2023/04/02 01:00:52;;;;;;;118.35;10.75;;;;;;;7.87;100.00;97982.81;5138150;28;20047;-61
2023/04/02 01:03:34;;;;;;;42.28;7.32;;;;;;;7.80;100.00;97996.38;5138592;28;20134;-62
2023/04/02 01:06:09;;;;;;;36.85;7.60;;;;;;;7.41;100.00;97994.00;5137913;27;20068;-61
2023/04/02 01:08:50;;;;;;;62.85;7.88;;;;;;;7.70;100.00;97970.56;5138241;28;20134;-67
2023/04/02 01:11:31;;;;;;;40.40;7.07;;;;;;;7.83;100.00;97970.28;5138317;28;20051;-62
2023/04/02 01:14:06;;;;;;;130.27;8.23;;;;;;;7.72;100.00;97981.09;5138042;28;20404;-67
2023/04/02 01:16:45;;;;;;;41.33;7.00;;;;;;;7.78;100.00;97991.28;5138234;28;20142;-62
2023/04/02 01:19:41;;;;;;;40.75;7.45;;;;;;;7.76;100.00;97995.53;5138020;28;20153;-60
2023/04/02 01:22:13;;;;;;;55.30;7.97;;;;;;;7.85;100.00;98003.44;5138090;28;20051;-66
2023/04/02 01:24:42;;;;;;;102.10;8.73;;;;;;;7.60;100.00;98009.44;5138145;28;20068;-66
2023/04/02 01:27:17;;;;;;;60.42;8.13;;;;;;;7.59;100.00;98018.75;5137799;27;20386;-65
2023/04/02 01:29:48;;;;;;;39.92;7.38;;;;;;;7.58;100.00;98019.91;5138050;28;20142;-61
2023/04/02 01:32:17;;;;;;;37.17;7.85;;;;;;;7.69;100.00;98014.56;5137771;28;20047;-66
2023/04/02 01:34:46;;;;;;;61.80;7.57;;;;;;;7.76;100.00;98014.63;5137997;27;20492;-61
2023/04/02 01:37:27;;;;;;;52.92;6.82;;;;;;;7.64;100.00;98028.56;5137649;28;20197;-65
2023/04/02 01:40:08;;;;;;;36.78;6.22;;;;;;;7.59;100.00;98042.50;5137810;28;20107;-66
2023/04/02 01:42:40;;;;;;;35.45;6.55;;;;;;;7.63;100.00;98056.97;5137823;28;20133;-58
2023/04/02 01:45:11;;;;;;;42.40;6.95;;;;;;;7.55;100.00;98067.81;5137531;28;20442;-63
2023/04/02 01:47:38;;;;;;;38.85;5.65;;;;;;;7.44;100.00;98080.53;5137920;28;20055;-62
2023/04/02 01:50:15;;;;;;;55.67;7.13;;;;;;;7.54;100.00;98060.00;5137577;28;20047;-67
2023/04/02 01:52:43;;;;;;;48.08;7.25;;;;;;;7.47;100.00;98062.66;5137860;28;20062;-63
2023/04/02 01:55:13;;;;;;;48.40;7.15;;;;;;;7.67;100.00;98033.28;5137319;28;20399;-62
2023/04/02 01:57:41;;;;;;;42.65;7.78;;;;;;;7.66;100.00;98037.13;5137382;28;20394;-62
2023/04/02 02:00:13;;;;;;;72.97;9.23;;;;;;;7.70;100.00;98027.84;5137421;28;20051;-64
2023/04/02 02:02:41;;;;;;;46.55;8.35;;;;;;;7.71;100.00;98026.69;5137526;28;20066;-62
2023/04/02 02:05:12;;;;;;;57.88;8.32;;;;;;;7.84;100.00;98031.88;5137489;27;20137;-63
2023/04/02 02:07:39;;;;;;;91.10;8.27;;;;;;;7.79;100.00;98031.03;5137402;28;20051;-63
2023/04/02 02:10:07;;;;;;;78.20;8.48;;;;;;;7.65;100.00;98039.09;5137619;28;20047;-66
2023/04/02 02:12:33;;;;;;;63.13;8.52;;;;;;;7.77;100.00;98057.16;5137222;28;20047;-64
2023/04/02 02:14:59;;;;;;;100.78;8.57;;;;;;;7.65;100.00;98055.44;5137338;28;20080;-65
2023/04/02 02:17:32;;;;;;;32.33;7.30;;;;;;;7.72;100.00;98035.66;5137096;28;20058;-65
2023/04/02 02:20:01;;;;;;;157.10;9.98;;;;;;;7.71;100.00;98039.53;5137639;28;20328;-64
2023/04/02 02:22:30;;;;;;;51.00;8.00;;;;;;;7.75;100.00;98041.13;5136963;28;20093;-63
2023/04/02 02:24:59;;;;;;;46.47;8.10;;;;;;;7.73;100.00;98040.75;5137217;28;20487;-65
2023/04/02 02:27:46;;;;;;;32.30;8.23;;;;;;;7.60;100.00;98036.69;5137242;28;20057;-61
2023/04/02 02:30:15;;;;;;;87.82;9.15;;;;;;;7.85;100.00;98030.72;5137104;28;20165;-61
2023/04/02 02:32:49;;;;;;;57.95;8.77;;;;;;;7.77;100.00;98038.06;5137257;28;20138;-62
2023/04/02 02:35:20;;;;;;;37.28;5.95;;;;;;;7.80;100.00;98050.94;5136857;27;20065;-66
2023/04/02 02:37:51;;;;;;;104.78;6.90;;;;;;;7.57;100.00;98066.66;5137220;28;20397;-64
2023/04/02 02:40:23;;;;;;;63.00;6.68;;;;;;;7.41;100.00;98085.94;5138153;27;20134;-61
2023/04/02 02:42:54;;;;;;;88.95;7.78;;;;;;;7.15;100.00;98079.34;5140892;28;20058;-66
2023/04/02 02:45:25;;;;;;;35.10;7.00;;;;;;;7.22;100.00;98048.69;5140682;28;20055;-61
2023/04/02 02:47:54;;;;;;;34.95;8.27;;;;;;;7.18;100.00;98039.69;5140578;28;20215;-64
2023/04/02 02:50:25;;;;;;;46.35;8.55;;;;;;;7.31;100.00;98019.22;5140404;28;20051;-67
2023/04/02 02:52:53;;;;;;;79.88;9.18;;;;;;;7.31;100.00;98021.94;5140448;28;20134;-60
2023/04/02 02:55:23;;;;;;;89.10;8.52;;;;;;;7.44;100.00;98027.94;5140410;28;20055;-66
2023/04/02 02:57:59;;;;;;;40.38;8.02;;;;;;;7.42;100.00;98047.38;5140361;28;20421;-64
2023/04/02 03:00:25;;;;;;;54.70;8.25;;;;;;;7.42;100.00;98062.97;5140561;28;20043;-65
2023/04/02 03:02:55;;;;;;;106.32;8.63;;;;;;;7.22;100.00;98068.53;5140156;28;20141;-64
2023/04/02 03:05:25;;;;;;;35.78;9.35;;;;;;;7.37;100.00;98064.09;5140193;27;20063;-63
2023/04/02 03:07:54;;;;;;;49.72;7.60;;;;;;;7.25;100.00;98070.53;5140284;28;20138;-61
2023/04/02 03:10:26;;;;;;;68.60;9.35;;;;;;;7.41;100.00;98053.22;5140142;28;20057;-66
2023/04/02 03:12:59;;;;;;;53.30;7.38;;;;;;;7.14;100.00;98058.72;5140048;28;20427;-64
2023/04/02 03:15:33;;;;;;;102.25;9.45;;;;;;;7.19;100.00;98049.41;5139802;28;20476;-65
2023/04/02 03:18:03;;;;;;;34.75;8.05;;;;;;;7.17;100.00;98049.03;5140218;28;20047;-64
2023/04/02 03:20:35;;;;;;;79.38;9.57;;;;;;;7.09;100.00;98050.84;5139856;28;20146;-66
2023/04/02 03:23:07;;;;;;;61.45;9.38;;;;;;;7.25;100.00;98047.94;5140250;28;20317;-67
2023/04/02 03:25:40;;;;;;;114.70;9.73;;;;;;;7.19;100.00;98054.88;5139692;28;20051;-61
2023/04/02 03:28:13;;;;;;;61.30;9.65;;;;;;;7.26;100.00;98039.41;5139983;28;20391;-66
2023/04/02 03:30:43;;;;;;;71.82;8.70;;;;;;;7.41;100.00;98045.81;5139974;28;20073;-62
2023/04/02 03:33:15;;;;;;;258.15;11.88;;;;;;;7.39;100.00;98069.94;5139810;28;20057;-65
2023/04/02 03:35:46;;;;;;;115.53;8.18;;;;;;;7.31;100.00;98084.63;5139848;27;20061;-65
2023/04/02 03:38:17;;;;;;;30.70;8.60;;;;;;;7.16;100.00;98093.75;5139659;28;20051;-64
2023/04/02 03:40:51;;;;;;;44.10;9.73;;;;;;;7.27;100.00;98086.53;5139851;28;20068;-62
2023/04/02 03:43:22;;;;;;;70.90;9.15;;;;;;;7.32;100.00;98084.25;5139450;28;20055;-66
2023/04/02 03:45:52;;;;;;;97.43;10.88;;;;;;;7.04;100.00;98090.13;5139792;28;20043;-62
2023/04/02 03:48:24;;;;;;;32.03;9.55;;;;;;;7.36;100.00;98067.16;5139655;28;20146;-65
2023/04/02 03:50:56;;;;;;;52.10;9.93;;;;;;;7.38;100.00;98079.28;5139295;27;20130;-65
2023/04/02 03:53:23;;;;;;;44.15;10.07;;;;;;;7.45;100.00;98089.50;5139543;28;20051;-63
2023/04/02 03:55:49;;;;;;;26.88;9.77;;;;;;;7.36;100.00;98089.75;5139413;28;20062;-61
2023/04/02 03:58:20;;;;;;;30.55;10.13;;;;;;;7.46;100.00;98091.88;5139611;28;20134;-61
2023/04/02 04:00:52;;;;;;;67.50;11.27;;;;;;;7.51;100.00;98110.63;5139617;28;20051;-62
2023/04/02 04:03:24;;;;;;;36.92;10.40;;;;;;;7.50;100.00;98125.41;5140503;28;20401;-62
2023/04/02 04:05:53;;;;;;;34.65;11.02;;;;;;;7.50;100.00;98141.00;5139645;27;20110;-67
2023/04/02 04:08:23;;;;;;;22.60;9.52;;;;;;;7.53;100.00;98149.22;5139708;28;20111;-62
2023/04/02 04:10:52;;;;;;;34.75;10.00;;;;;;;7.47;100.00;98158.88;5139296;28;20055;-66
2023/04/02 04:13:22;;;;;;;35.47;9.98;;;;;;;7.34;100.00;98187.50;5139146;28;20051;-62
2023/04/02 04:15:53;;;;;;;23.55;9.00;;;;;;;7.22;100.00;98187.72;5139113;28;20046;-66
2023/04/02 04:18:33;;;;;;;38.50;9.95;;;;;;;7.12;100.00;98183.66;5139074;28;20078;-66
2023/04/02 04:21:02;;;;;;;44.63;8.73;;;;;;;7.08;100.00;98191.00;5138786;28;20051;-66
2023/04/02 04:23:31;;;;;;;22.15;8.20;;;;;;;7.00;100.00;98194.78;5138793;28;20196;-63
2023/04/02 04:26:04;;;;;;;16.63;8.32;;;;;;;6.81;100.00;98199.13;5139188;28;20076;-64
2023/04/02 04:28:37;;;;;;;40.03;9.10;;;;;;;6.84;100.00;98173.09;5138692;28;20078;-63
2023/04/02 04:31:16;;;;;;;22.35;9.35;;;;;;;6.94;100.00;98163.53;5138915;28;20058;-64
2023/04/02 04:33:49;;;;;;;28.27;10.38;;;;;;;6.94;100.00;98163.53;5138855;28;20182;-63
2023/04/02 04:36:27;;;;;;;35.97;9.57;;;;;;;6.94;100.00;98167.03;5138664;27;20187;-66
2023/04/02 04:38:58;;;;;;;20.50;9.60;;;;;;;7.03;100.00;98170.31;5138926;28;20047;-65
2023/04/02 04:41:28;;;;;;;23.27;9.35;;;;;;;7.03;100.00;98167.59;5138629;28;20051;-67
2023/04/02 04:44:00;;;;;;;18.23;8.88;;;;;;;6.95;100.00;98168.59;5138960;28;20145;-62
2023/04/02 04:46:32;;;;;;;26.25;8.85;;;;;;;6.99;100.00;98169.44;5138388;28;20480;-66
2023/04/02 04:49:05;;;;;;;19.23;8.15;;;;;;;6.78;100.00;98167.16;5138406;28;20404;-67
2023/04/02 04:51:36;;;;;;;14.70;8.35;;;;;;;6.65;100.00;98152.16;5138382;28;20361;-64
2023/04/02 04:54:02;;;;;;;20.33;9.48;;;;;;;6.35;100.00;98141.13;5138431;28;20142;-62
2023/04/02 04:56:30;;;;;;;15.60;8.30;;;;;;;6.37;100.00;98111.63;5138592;28;20123;-67
2023/04/02 04:59:02;;;;;;;14.35;7.47;;;;;;;6.58;100.00;98095.63;5138341;28;20146;-66
2023/04/02 05:01:36;;;;;;;13.30;6.70;;;;;;;6.32;100.00;98088.19;5138638;28;20051;-62
2023/04/02 05:04:09;;;;;;;12.75;6.15;;;;;;;6.50;100.00;98074.91;5137485;27;20055;-64
2023/04/02 05:06:38;;;;;;;13.23;6.88;;;;;;;6.38;100.00;98068.84;5138528;27;20047;-65
2023/04/02 05:09:12;;;;;;;17.52;7.28;;;;;;;6.27;100.00;98065.94;5138001;28;20138;-60
2023/04/02 05:11:41;;;;;;;;;;;;;;;6.41;100.00;98058.00;5138483;28;20423;-64
2023/04/02 05:14:17;;;;;;;16.80;7.43;;;;;;;6.50;100.00;98044.94;5138229;28;19923;-61
2023/04/02 05:16:50;;;;;;;13.05;6.75;;;;;;;6.43;100.00;98036.66;5137859;28;20420;-65
2023/04/02 05:19:22;;;;;;;11.95;6.78;;;;;;;6.36;100.00;98040.06;5138280;28;20051;-61
2023/04/02 05:21:54;;;;;;;10.90;6.38;;;;;;;6.40;100.00;98050.19;5137853;28;20085;-62
2023/04/02 05:24:39;;;;;;;14.07;6.05;;;;;;;6.54;100.00;98048.50;5138242;28;20058;-65
2023/04/02 05:27:19;;;;;;;11.10;5.70;;;;;;;6.46;100.00;98062.34;5137729;28;20043;-62
2023/04/02 05:29:51;;;;;;;9.00;5.40;;;;;;;6.20;100.00;98063.88;5137708;28;20138;-60
2023/04/02 05:32:21;;;;;;;8.27;4.72;;;;;;;6.25;100.00;98060.06;5138011;28;20046;-62
2023/04/02 05:34:52;;;;;;;8.65;4.38;;;;;;;6.21;100.00;98051.06;5137554;27;20496;-64
2023/04/02 05:37:20;;;;;;;5.22;4.07;;;;;;;5.97;100.00;98044.81;5137990;28;20051;-65
2023/04/02 05:39:51;;;;;;;6.43;4.38;;;;;;;6.04;100.00;98050.38;5137559;28;20138;-66
2023/04/02 05:42:22;;;;;;;6.20;4.30;;;;;;;6.09;100.00;98047.34;5137945;28;20138;-60
2023/04/02 05:44:59;;;;;;;6.50;4.00;;;;;;;5.97;100.00;98049.47;5137456;28;20141;-66
2023/04/02 05:47:28;;;;;;;5.80;4.03;;;;;;;6.12;100.00;98059.44;5137338;28;20047;-62
2023/04/02 05:50:16;;;;;;;4.18;3.20;;;;;;;6.27;100.00;98066.72;5137157;28;20298;-64
2023/04/02 05:52:47;;;;;;;5.20;3.10;;;;;;;6.30;100.00;98081.56;5137424;28;20099;-62
2023/04/02 05:55:31;;;;;;;3.42;2.70;;;;;;;6.52;100.00;98104.47;5137236;28;20065;-63
2023/04/02 05:58:03;;;;;;;3.90;2.90;;;;;;;6.61;100.00;98124.06;5137382;28;20093;-66
2023/04/02 06:00:53;;;;;;;3.47;2.67;;;;;;;6.05;100.00;98140.97;5137663;28;20047;-62
2023/04/02 06:03:27;;;;;;;5.15;2.30;;;;;;;6.08;100.00;98142.97;5137481;28;20043;-61
2023/04/02 06:06:00;;;;;;;1.98;1.80;;;;;;;5.70;100.00;98138.28;5137060;27;20050;-65
2023/04/02 06:08:34;;;;;;;11.43;2.08;;;;;;;5.67;100.00;98134.34;5137464;28;20051;-61
2023/04/02 06:11:07;;;;;;;2.88;2.03;;;;;;;5.42;100.00;98137.31;5136938;28;20058;-63
2023/04/02 06:13:33;;;;;;;1.77;1.67;;;;;;;5.51;100.00;98114.59;5137297;27;20062;-65
2023/04/02 06:15:59;;;;;;;1.77;1.55;;;;;;;5.25;100.00;98107.06;5139652;28;20055;-62
2023/04/02 06:18:27;;;;;;;2.63;2.03;;;;;;;5.24;100.00;98100.06;5141220;28;20053;-65
2023/04/02 06:20:54;;;;;;;1.83;1.67;;;;;;;5.15;100.00;98092.88;5140764;28;20070;-65
2023/04/02 06:23:29;;;;;;;2.38;1.80;;;;;;;5.08;100.00;98081.84;5141074;28;20107;-63
2023/04/02 06:26:00;;;;;;;3.42;1.88;;;;;;;5.08;100.00;98073.69;5140900;28;20142;-61
2023/04/02 06:28:32;;;;;;;4.70;1.58;;;;;;;5.02;100.00;98069.69;5140656;28;20047;-65
2023/04/02 06:31:04;;;;;;;6.15;1.55;;;;;;;5.05;100.00;98068.19;5140788;28;20074;-66
2023/04/02 06:33:30;;;;;;;1.98;1.73;;;;;;;4.81;100.00;98069.22;5140412;28;20141;-64
2023/04/02 06:35:59;;;;;;;2.45;1.60;;;;;;;4.94;100.00;98067.97;5140758;27;20059;-62
2023/04/02 06:38:30;;;;;;;2.45;1.75;;;;;;;4.84;100.00;98063.09;5140513;28;20141;-62
2023/04/02 06:40:58;;;;;;;2.10;1.83;;;;;;;4.93;100.00;98069.09;5140738;28;20108;-62
2023/04/02 06:43:32;;;;;;;2.10;1.83;;;;;;;5.09;100.00;98077.19;5140350;28;20082;-65
2023/04/02 06:46:00;;;;;;;2.05;1.90;;;;;;;4.92;100.00;98091.97;5140597;28;20366;-63
2023/04/02 06:48:28;;;;;;;2.03;1.83;;;;;;;5.29;100.00;98097.81;5140361;28;20051;-63
2023/04/02 06:51:00;;;;;;;2.83;2.00;;;;;;;5.45;100.00;98102.44;5140404;28;20099;-64
2023/04/02 06:53:31;;;;;;;3.17;2.03;;;;;;;5.40;100.00;98114.38;5140329;28;20141;-66
2023/04/02 06:56:03;;;;;;;1.95;1.85;;;;;;;5.21;100.00;98131.44;5140149;28;20055;-61
2023/04/02 06:58:28;;;;;;;1.73;1.58;;;;;;;5.33;100.00;98144.09;5140444;28;20054;-66
2023/04/02 07:00:55;;;;;;;1.77;1.67;;;;;;;5.24;100.00;98157.13;5140164;28;20051;-66
2023/04/02 07:03:23;;;;;;;2.00;1.80;;;;;;;5.52;100.00;98167.81;5140488;28;20042;-62
2023/04/02 07:05:50;;;;;;;2.15;1.83;;;;;;;5.49;100.00;98185.63;5139828;27;20150;-66
2023/04/02 07:08:16;;;;;;;3.28;2.22;;;;;;;5.54;100.00;98198.94;5140369;28;20055;-61
2023/04/02 07:10:42;;;;;;;1.95;1.85;;;;;;;5.42;100.00;98212.66;5140121;28;20058;-62
2023/04/02 07:13:12;;;;;;;2.00;1.73;;;;;;;5.45;100.00;98228.25;5140166;28;20134;-64
2023/04/02 07:15:38;;;;;;;1.30;1.30;;;;;;;5.33;100.00;98261.78;5140081;28;20051;-61
2023/04/02 07:18:04;;;;;;;1.80;1.45;;;;;;;5.33;100.00;98279.97;5139995;28;20328;-62
2023/04/02 07:20:32;;;;;;;3.28;1.30;;;;;;;5.35;100.00;98296.75;5139993;28;20316;-65
2023/04/02 07:22:58;;;;;;;1.70;1.60;;;;;;;5.41;100.00;98312.44;5139840;28;20088;-62
2023/04/02 07:25:25;;;;;;;2.50;1.77;;;;;;;5.53;100.00;98322.44;5139912;27;20066;-61
2023/04/02 07:27:52;;;;;;;2.13;1.88;;;;;;;6.03;100.00;98328.25;5143179;28;20061;-59
2023/04/02 07:30:19;;;;;;;2.20;2.00;;;;;;;5.98;100.00;98367.41;5144236;28;20106;-61
2023/04/02 07:32:45;;;;;;;1.95;1.40;;;;;;;6.19;100.00;98407.16;5139721;28;20130;-64
2023/04/02 07:35:11;;;;;;;1.52;1.40;;;;;;;6.11;100.00;98445.09;5139945;27;20142;-63
2023/04/02 07:37:38;;;;;;;1.30;1.20;;;;;;;5.68;100.00;98478.56;5139522;28;20054;-64
2023/04/02 07:40:05;;;;;;;1.40;1.30;;;;;;;5.44;100.00;98474.06;5139748;28;20078;-63
2023/04/02 07:42:32;;;;;;;4.00;1.25;;;;;;;5.70;100.00;98479.03;5139527;28;20066;-63
2023/04/02 07:44:57;;;;;;;1.45;1.35;;;;;;;5.60;100.00;98502.06;5139631;28;20055;-63
2023/04/02 07:47:23;;;;;;;1.13;1.13;;;;;;;5.75;100.00;98494.28;5139673;28;20054;-63
2023/04/02 07:49:49;;;;;;;1.17;1.17;;;;;;;5.87;100.00;98516.75;5139582;28;20075;-63
2023/04/02 07:52:15;;;;;;;1.95;1.35;;;;;;;5.95;100.00;98528.63;5139499;28;20138;-65
2023/04/02 07:54:42;;;;;;;1.20;1.20;;;;;;;5.83;100.00;98539.56;5139245;28;20058;-64
2023/04/02 07:57:08;;;;;;;1.60;1.30;;;;;;;5.64;100.00;98557.34;5139675;28;20047;-63
2023/04/02 07:59:35;;;;;;;3.55;0.95;;;;;;;5.95;100.00;98550.41;5139232;28;20082;-62
2023/04/02 08:02:01;;;;;;;1.75;0.80;;;;;;;5.68;100.00;98578.41;5139592;28;20072;-62
2023/04/02 08:04:27;;;;;;;1.42;1.17;;;;;;;5.75;100.00;98571.22;5138963;27;20055;-66
2023/04/02 08:06:53;;;;;;;1.17;1.10;;;;;;;5.68;100.00;98576.47;5139419;28;20096;-63
2023/04/02 08:09:19;;;;;;;1.13;0.90;;;;;;;5.58;100.00;98577.75;5139091;28;20090;-63
2023/04/02 08:11:45;;;;;;;0.90;0.90;;;;;;;5.69;100.00;98569.88;5139163;28;20138;-63
2023/04/02 08:14:11;;;;;;;1.10;1.00;;;;;;;5.78;100.00;98586.06;5139042;28;20332;-63
2023/04/02 08:16:46;;;;;;;0.82;0.82;;;;;;;5.76;100.00;98599.19;5139072;28;20150;-65
2023/04/02 08:19:12;;;;;;;0.80;0.80;;;;;;;5.51;100.00;98621.06;5139286;28;20058;-67
2023/04/02 08:21:38;;;;;;;0.63;0.63;;;;;;;5.24;100.00;98638.09;5138957;28;20412;-65
2023/04/02 08:24:04;;;;;;;0.70;0.70;;;;;;;5.30;100.00;98644.88;5139247;28;20157;-63
2023/04/02 08:26:30;;;;;;;0.70;0.70;;;;;;;5.10;100.00;98665.63;5138738;28;20047;-67
2023/04/02 08:28:56;;;;;;;0.65;0.65;;;;;;;5.09;100.00;98669.47;5139228;28;20057;-65
2023/04/02 08:31:23;;;;;;;0.73;0.73;;;;;;;5.24;100.00;98684.31;5138732;28;20059;-63
2023/04/02 08:33:49;;;;;;;0.70;0.70;;;;;;;5.34;100.00;98687.34;5138966;28;20044;-63
2023/04/02 08:36:16;;;;;;;0.80;0.80;;;;;;;5.05;100.00;98687.59;5138805;27;20324;-61
2023/04/02 08:38:42;;;;;;;0.70;0.70;;;;;;;4.96;100.00;98684.97;5137775;27;20145;-65
2023/04/02 08:41:20;;;;;;;0.70;0.70;;;;;;;5.17;100.00;98684.88;5138887;28;20317;-67
2023/04/02 08:44:07;;;;;;;2.47;0.80;;;;;;;5.13;100.00;98687.47;5138634;28;20058;-62
2023/04/02 08:46:40;;;;;;;0.80;0.80;;;;;;;5.01;100.00;98694.84;5138744;28;20055;-62
2023/04/02 08:49:13;;;;;;;4.60;1.02;;;;;;;4.78;100.00;98703.41;5138473;28;20080;-62
2023/04/02 08:51:39;;;;;;;0.63;0.63;;;;;;;4.89;100.00;98703.75;5138723;28;20150;-65
2023/04/02 08:54:16;;;;;;;2.17;1.30;;;;;;;4.94;100.00;98703.56;5138113;28;20051;-62
2023/04/02 08:56:46;;;;;;;1.02;0.90;;;;;;;4.85;100.00;98711.00;5138513;28;20061;-62
2023/04/02 08:59:23;;;;;;;1.08;0.98;;;;;;;4.68;100.00;98712.00;5138598;28;20392;-64
2023/04/02 09:01:58;;;;;;;0.70;0.70;;;;;;;4.95;100.00;98696.97;5138168;28;20071;-66
2023/04/02 09:04:26;;;;;;;0.80;0.80;;;;;;;4.64;100.00;98700.22;5138458;27;20051;-67
2023/04/02 09:06:54;;;;;;;0.60;0.60;;;;;;;4.94;100.00;98708.97;5138213;28;20332;-67
2023/04/02 09:09:22;;;;;;;0.70;0.70;;;;;;;4.80;100.00;98730.22;5138541;28;20137;-65
2023/04/02 09:11:53;;;;;;;1.60;0.70;;;;;;;5.13;100.00;98730.16;5137398;28;20381;-65
2023/04/02 09:14:23;;;;;;;1.33;0.85;;;;;;;5.09;100.00;98726.53;5137826;28;20061;-66
2023/04/02 09:16:52;;;;;;;1.35;0.80;;;;;;;5.04;100.00;98718.63;5138240;28;20047;-64
2023/04/02 09:19:21;;;;;;;0.80;0.80;;;;;;;5.24;100.00;98714.19;5137982;28;20149;-63
2023/04/02 09:22:02;;;;;;;0.75;0.75;;;;;;;5.62;100.00;98725.47;5138264;28;20076;-66
2023/04/02 09:24:28;;;;;;;0.93;0.93;;;;;;;5.71;100.00;98746.31;5137974;28;20054;-66
2023/04/02 09:26:54;;;;;;;2.40;1.00;;;;;;;5.50;100.00;98770.91;5138235;28;20075;-63
2023/04/02 09:29:42;;;;;;;0.90;0.90;;;;;;;5.46;100.00;98789.84;5137809;28;20388;-62
2023/04/02 09:32:23;;;;;;;2.35;0.95;;;;;;;5.15;100.00;98801.25;5138241;28;20043;-61
2023/04/02 09:34:48;;;;;;;0.70;0.70;;;;;;;5.30;100.00;98810.66;5137827;27;20084;-66
2023/04/02 09:37:18;;;;;;;0.70;0.70;;;;;;;5.23;100.00;98813.16;5137911;28;20063;-64
2023/04/02 09:39:44;;;;;;;0.90;0.82;;;;;;;4.94;100.00;98821.16;5137964;28;20184;-63
2023/04/02 09:42:28;;;;;;;0.90;0.90;;;;;;;5.12;100.00;98819.03;5137635;28;20408;-61
2023/04/02 09:45:12;;;;;;;0.57;0.57;;;;;;;5.09;100.00;98837.94;5138006;28;20051;-62
2023/04/02 09:47:39;;;;;;;0.95;0.90;;;;;;;5.49;100.00;98842.75;5137617;28;20150;-66
2023/04/02 09:50:24;;;;;;;0.70;0.70;;;;;;;5.30;100.00;98849.53;5137707;27;20043;-63
2023/04/02 09:52:51;;;;;;;1.10;0.85;;;;;;;5.19;100.00;98846.44;5137753;28;20134;-65
2023/04/02 09:55:20;;;;;;;1.05;0.88;;;;;;;4.99;100.00;98847.28;5137573;28;20377;-63
2023/04/02 09:57:48;;;;;;;0.75;0.75;;;;;;;4.92;100.00;98860.63;5137745;28;20043;-67
2023/04/02 10:00:20;;;;;;;0.90;0.90;;;;;;;4.67;100.00;98873.34;5137543;28;20050;-62
2023/04/02 10:02:58;;;;;;;1.63;1.00;;;;;;;4.59;100.00;98861.41;5137713;28;20047;-62
2023/04/02 10:05:25;;;;;;;1.50;0.80;;;;;;;4.75;100.00;98855.38;5137328;27;20065;-65
2023/04/02 10:07:53;;;;;;;0.90;0.90;;;;;;;4.88;100.00;98851.56;5137716;28;20075;-58
2023/04/02 10:10:23;;;;;;;0.70;0.70;;;;;;;4.91;100.00;98862.56;5137212;28;20487;-63
2023/04/02 10:12:56;;;;;;;0.57;0.57;;;;;;;4.74;100.00;98857.28;5137387;28;20098;-63
2023/04/02 10:15:29;;;;;;;0.80;0.80;;;;;;;4.66;100.00;98863.59;5137202;28;20120;-61
2023/04/02 10:18:02;;;;;;;0.60;0.60;;;;;;;4.65;100.00;98875.56;5137002;28;20534;-66
2023/04/02 10:20:28;;;;;;;5.43;0.80;;;;;;;4.41;100.00;98882.47;5137402;28;20365;-65
2023/04/02 10:22:55;;;;;;;0.60;0.60;;;;;;;4.37;100.00;98878.84;5137196;28;20154;-65
2023/04/02 10:25:26;;;;;;;0.70;0.70;;;;;;;4.63;100.00;98872.38;5137430;28;20120;-65
2023/04/02 10:28:01;;;;;;;0.85;0.70;;;;;;;4.39;100.00;98887.41;5136980;28;20059;-61
2023/04/02 10:30:34;;;;;;;1.13;0.77;;;;;;;4.51;100.00;98875.06;5137373;28;20043;-62
2023/04/02 10:33:06;;;;;;;0.80;0.80;;;;;;;4.39;100.00;98889.34;5136930;28;20485;-63
2023/04/02 10:35:42;;;;;;;1.10;0.70;;;;;;;4.34;100.00;98865.13;5136949;27;20319;-62
2023/04/02 10:38:23;;;;;;;1.20;0.90;;;;;;;4.59;100.00;98858.69;5137201;28;20388;-62
2023/04/02 10:40:57;;;;;;;0.90;0.90;;;;;;;4.72;100.00;98865.75;5136809;28;20086;-62
2023/04/02 10:43:41;;;;;;;0.73;0.70;;;;;;;4.70;100.00;98878.09;5137200;28;20142;-62
2023/04/02 10:46:18;;;;;;;2.17;0.85;;;;;;;4.31;100.00;98903.78;5136718;28;20134;-63
2023/04/02 10:48:51;;;;;;;0.80;0.80;;;;;;;4.55;100.00;98898.50;5137222;28;20480;-63
2023/04/02 10:51:27;;;;;;;5.07;0.80;;;;;;;4.34;100.00;98901.19;5136977;28;20302;-63
2023/04/02 10:54:01;;;;;;;2.72;0.70;;;;;;;4.54;100.00;98913.19;5136899;28;20142;-63
2023/04/02 10:56:29;;;;;;;1.15;0.80;;;;;;;4.31;100.00;98917.34;5137012;28;20195;-66
2023/04/02 10:59:02;;;;;;;0.70;0.70;;;;;;;4.35;100.00;98904.72;5136712;28;20062;-63
2023/04/02 11:01:30;;;;;;;1.52;0.70;;;;;;;4.53;100.00;98898.00;5138411;27;20043;-64
2023/04/02 11:03:59;;;;;;;2.95;0.57;;;;;;;4.34;100.00;98912.06;5140162;28;20137;-60
2023/04/02 11:06:30;;;;;;;1.20;1.00;;;;;;;4.16;100.00;98907.84;5140287;27;20413;-63
2023/04/02 11:09:00;;;;;;;0.90;0.90;;;;;;;4.09;100.00;98897.50;5140012;28;20138;-67
2023/04/02 11:11:29;;;;;;;1.80;0.77;;;;;;;4.15;100.00;98898.13;5140343;28;20456;-61
2023/04/02 11:14:00;;;;;;;0.70;0.70;;;;;;;3.83;100.00;98900.34;5140229;28;20092;-63
2023/04/02 11:16:27;;;;;;;0.57;0.57;;;;;;;3.68;100.00;98909.06;5139835;28;20141;-65
2023/04/02 11:19:20;;;;;;;0.70;0.70;;;;;;;3.51;100.00;98904.50;5140167;28;20079;-64
2023/04/02 11:21:48;;;;;;;0.95;0.82;;;;;;;3.72;100.00;98904.56;5139763;28;20469;-65
2023/04/02 11:24:28;;;;;;;0.50;0.50;;;;;;;3.73;100.00;98911.56;5140232;28;20357;-66
2023/04/02 11:27:04;;;;;;;1.45;0.70;;;;;;;3.51;100.00;98899.06;5139833;28;20055;-65
2023/04/02 11:29:31;;;;;;;0.88;0.68;;;;;;;3.49;100.00;98887.75;5139597;28;20047;-62
2023/04/02 11:32:27;;;;;;;2.83;0.80;;;;;;;3.47;100.00;98885.38;5139989;28;20047;-66
2023/04/02 11:35:34;;;;;;;0.70;0.70;;;;;;;3.43;100.00;98875.50;5139643;27;20335;-61
2023/04/02 11:38:03;;;;;;;0.60;0.60;;;;;;;3.48;100.00;98891.59;5140105;28;20337;-63
2023/04/02 11:40:49;;;;;;;1.02;0.80;;;;;;;3.28;100.00;98893.88;5139562;28;20046;-65
2023/04/02 11:43:50;;;;;;;0.60;0.60;;;;;;;3.46;100.00;98910.88;5139727;28;20066;-65
2023/04/02 11:46:38;;;;;;;0.50;0.50;;;;;;;3.46;100.00;98907.38;5036869;28;20058;-64
2023/04/02 11:49:32;;;;;;;1.45;1.35;;;;;;;3.38;100.00;98900.88;5036827;28;20136;-65